sensor_id;sensor_type;location;lat;lon;timestamp;P1;durP1;ratioP1;P2;durP2;ratioP2
5977;SDS011;3015;51.390;12.256;2023-03-23T00:01:07;3.30;;;2.60;;
5977;SDS011;3015;51.390;12.256;2023-03-23T00:03:44;4.67;;;2.97;;
5977;SDS011;3015;51.390;12.256;2023-03-23T00:06:11;2.43;;;2.23;;
5977;SDS011;3015;51.390;12.256;2023-03-23T00:08:42;4.03;;;2.73;;
5977;SDS011;3015;51.390;12.256;2023-03-23T00:11:12;2.37;;;2.23;;
5977;SDS011;3015;51.390;12.256;2023-03-23T00:13:43;4.97;;;4.33;;
5977;SDS011;3015;51.390;12.256;2023-03-23T00:16:10;2.57;;;2.37;;
5977;SDS011;3015;51.390;12.256;2023-03-23T00:18:50;3.03;;;2.83;;
5977;SDS011;3015;51.390;12.256;2023-03-23T00:21:17;2.87;;;2.67;;
5977;SDS011;3015;51.390;12.256;2023-03-23T00:24:13;2.63;;;2.40;;
5977;SDS011;3015;51.390;12.256;2023-03-23T00:26:44;2.90;;;2.70;;
5977;SDS011;3015;51.390;12.256;2023-03-23T00:29:13;2.40;;;2.30;;
5977;SDS011;3015;51.390;12.256;2023-03-23T00:31:44;2.33;;;2.23;;
5977;SDS011;3015;51.390;12.256;2023-03-23T00:34:14;2.60;;;2.40;;
5977;SDS011;3015;51.390;12.256;2023-03-23T00:36:43;2.50;;;2.30;;
5977;SDS011;3015;51.390;12.256;2023-03-23T00:39:10;2.53;;;2.33;;
5977;SDS011;3015;51.390;12.256;2023-03-23T00:41:36;3.03;;;2.80;;
5977;SDS011;3015;51.390;12.256;2023-03-23T00:44:03;3.47;;;3.27;;
5977;SDS011;3015;51.390;12.256;2023-03-23T00:46:29;2.60;;;2.40;;
5977;SDS011;3015;51.390;12.256;2023-03-23T00:48:55;2.40;;;2.30;;
5977;SDS011;3015;51.390;12.256;2023-03-23T00:51:22;2.80;;;2.60;;
5977;SDS011;3015;51.390;12.256;2023-03-23T00:53:48;2.83;;;2.60;;
5977;SDS011;3015;51.390;12.256;2023-03-23T00:56:14;3.13;;;2.93;;
5977;SDS011;3015;51.390;12.256;2023-03-23T00:58:40;5.20;;;2.70;;
5977;SDS011;3015;51.390;12.256;2023-03-23T01:01:05;4.53;;;2.30;;
5977;SDS011;3015;51.390;12.256;2023-03-23T01:03:32;2.77;;;2.57;;
5977;SDS011;3015;51.390;12.256;2023-03-23T01:06:03;2.97;;;2.77;;
5977;SDS011;3015;51.390;12.256;2023-03-23T01:08:37;3.67;;;2.67;;
5977;SDS011;3015;51.390;12.256;2023-03-23T01:11:10;2.43;;;2.33;;
5977;SDS011;3015;51.390;12.256;2023-03-23T01:13:41;4.53;;;3.13;;
5977;SDS011;3015;51.390;12.256;2023-03-23T01:16:10;2.67;;;2.57;;
5977;SDS011;3015;51.390;12.256;2023-03-23T01:18:36;3.70;;;3.37;;
5977;SDS011;3015;51.390;12.256;2023-03-23T01:21:04;4.13;;;2.47;;
5977;SDS011;3015;51.390;12.256;2023-03-23T01:23:32;3.97;;;2.93;;
5977;SDS011;3015;51.390;12.256;2023-03-23T01:26:02;2.83;;;2.63;;
5977;SDS011;3015;51.390;12.256;2023-03-23T01:28:32;3.00;;;2.80;;
5977;SDS011;3015;51.390;12.256;2023-03-23T01:31:02;2.70;;;2.60;;
5977;SDS011;3015;51.390;12.256;2023-03-23T01:33:29;3.27;;;2.97;;
5977;SDS011;3015;51.390;12.256;2023-03-23T01:35:55;3.13;;;2.93;;
5977;SDS011;3015;51.390;12.256;2023-03-23T01:38:21;2.70;;;2.50;;
5977;SDS011;3015;51.390;12.256;2023-03-23T01:40:47;3.70;;;3.33;;
5977;SDS011;3015;51.390;12.256;2023-03-23T01:43:13;2.73;;;2.50;;
5977;SDS011;3015;51.390;12.256;2023-03-23T01:45:40;3.30;;;3.10;;
5977;SDS011;3015;51.390;12.256;2023-03-23T01:48:17;2.27;;;2.17;;
5977;SDS011;3015;51.390;12.256;2023-03-23T01:50:49;2.93;;;2.77;;
5977;SDS011;3015;51.390;12.256;2023-03-23T01:53:19;2.93;;;2.73;;
5977;SDS011;3015;51.390;12.256;2023-03-23T01:55:46;3.60;;;3.07;;
5977;SDS011;3015;51.390;12.256;2023-03-23T01:58:15;2.93;;;2.73;;
5977;SDS011;3015;51.390;12.256;2023-03-23T02:00:44;2.60;;;2.50;;
5977;SDS011;3015;51.390;12.256;2023-03-23T02:03:10;3.87;;;3.00;;
5977;SDS011;3015;51.390;12.256;2023-03-23T02:05:41;5.72;;;2.88;;
5977;SDS011;3015;51.390;12.256;2023-03-23T02:08:07;2.50;;;2.40;;
5977;SDS011;3015;51.390;12.256;2023-03-23T02:10:35;2.80;;;2.60;;
5977;SDS011;3015;51.390;12.256;2023-03-23T02:13:03;2.50;;;2.40;;
5977;SDS011;3015;51.390;12.256;2023-03-23T02:18:59;2.40;;;2.30;;
5977;SDS011;3015;51.390;12.256;2023-03-23T02:27:07;2.53;;;2.43;;
5977;SDS011;3015;51.390;12.256;2023-03-23T02:29:59;2.30;;;2.20;;
5977;SDS011;3015;51.390;12.256;2023-03-23T02:37:58;3.00;;;2.63;;
5977;SDS011;3015;51.390;12.256;2023-03-23T02:40:39;2.27;;;2.17;;
5977;SDS011;3015;51.390;12.256;2023-03-23T02:43:09;2.30;;;2.10;;
5977;SDS011;3015;51.390;12.256;2023-03-23T02:45:38;2.53;;;2.33;;
5977;SDS011;3015;51.390;12.256;2023-03-23T02:48:07;2.60;;;2.50;;
5977;SDS011;3015;51.390;12.256;2023-03-23T02:50:35;2.67;;;2.47;;
5977;SDS011;3015;51.390;12.256;2023-03-23T02:53:01;2.70;;;2.50;;
5977;SDS011;3015;51.390;12.256;2023-03-23T02:55:30;2.53;;;2.27;;
5977;SDS011;3015;51.390;12.256;2023-03-23T02:57:57;2.37;;;2.27;;
5977;SDS011;3015;51.390;12.256;2023-03-23T03:00:22;2.13;;;2.03;;
5977;SDS011;3015;51.390;12.256;2023-03-23T03:02:49;2.10;;;2.00;;
5977;SDS011;3015;51.390;12.256;2023-03-23T03:05:30;2.10;;;2.00;;
5977;SDS011;3015;51.390;12.256;2023-03-23T03:13:50;2.10;;;1.87;;
5977;SDS011;3015;51.390;12.256;2023-03-23T03:16:31;2.40;;;2.30;;
5977;SDS011;3015;51.390;12.256;2023-03-23T03:19:09;2.50;;;2.30;;
5977;SDS011;3015;51.390;12.256;2023-03-23T03:21:43;2.30;;;2.10;;
5977;SDS011;3015;51.390;12.256;2023-03-23T03:24:13;2.40;;;2.30;;
5977;SDS011;3015;51.390;12.256;2023-03-23T03:26:42;2.10;;;1.90;;
5977;SDS011;3015;51.390;12.256;2023-03-23T03:29:16;3.00;;;1.87;;
5977;SDS011;3015;51.390;12.256;2023-03-23T03:31:45;2.37;;;2.27;;
5977;SDS011;3015;51.390;12.256;2023-03-23T03:34:12;2.40;;;2.30;;
5977;SDS011;3015;51.390;12.256;2023-03-23T03:36:42;2.30;;;2.10;;
5977;SDS011;3015;51.390;12.256;2023-03-23T03:39:13;2.10;;;1.90;;
5977;SDS011;3015;51.390;12.256;2023-03-23T03:41:40;2.20;;;2.03;;
5977;SDS011;3015;51.390;12.256;2023-03-23T03:44:06;2.33;;;2.20;;
5977;SDS011;3015;51.390;12.256;2023-03-23T03:46:33;4.90;;;2.30;;
5977;SDS011;3015;51.390;12.256;2023-03-23T03:49:00;1.97;;;1.87;;
5977;SDS011;3015;51.390;12.256;2023-03-23T03:51:27;2.90;;;2.70;;
5977;SDS011;3015;51.390;12.256;2023-03-23T03:53:54;2.40;;;2.20;;
5977;SDS011;3015;51.390;12.256;2023-03-23T03:56:20;2.50;;;2.30;;
5977;SDS011;3015;51.390;12.256;2023-03-23T03:58:47;2.43;;;2.33;;
5977;SDS011;3015;51.390;12.256;2023-03-23T04:01:13;2.27;;;2.07;;
5977;SDS011;3015;51.390;12.256;2023-03-23T04:03:41;2.80;;;2.60;;
5977;SDS011;3015;51.390;12.256;2023-03-23T04:06:07;3.87;;;2.50;;
5977;SDS011;3015;51.390;12.256;2023-03-23T04:08:34;2.67;;;2.47;;
5977;SDS011;3015;51.390;12.256;2023-03-23T04:11:00;2.60;;;2.37;;
5977;SDS011;3015;51.390;12.256;2023-03-23T04:13:26;2.60;;;2.13;;
5977;SDS011;3015;51.390;12.256;2023-03-23T04:15:52;3.33;;;2.30;;
5977;SDS011;3015;51.390;12.256;2023-03-23T04:18:18;2.60;;;2.50;;
5977;SDS011;3015;51.390;12.256;2023-03-23T04:20:45;2.33;;;2.23;;
5977;SDS011;3015;51.390;12.256;2023-03-23T04:23:17;2.27;;;2.17;;
5977;SDS011;3015;51.390;12.256;2023-03-23T04:25:47;2.80;;;2.43;;
5977;SDS011;3015;51.390;12.256;2023-03-23T04:28:18;2.67;;;2.47;;
5977;SDS011;3015;51.390;12.256;2023-03-23T04:30:48;2.20;;;2.10;;
5977;SDS011;3015;51.390;12.256;2023-03-23T04:33:18;2.10;;;2.00;;
5977;SDS011;3015;51.390;12.256;2023-03-23T04:35:45;2.07;;;1.97;;
5977;SDS011;3015;51.390;12.256;2023-03-23T04:38:13;2.47;;;2.37;;
5977;SDS011;3015;51.390;12.256;2023-03-23T04:40:41;2.27;;;2.17;;
5977;SDS011;3015;51.390;12.256;2023-03-23T04:43:07;3.00;;;2.50;;
5977;SDS011;3015;51.390;12.256;2023-03-23T04:45:34;2.60;;;2.40;;
5977;SDS011;3015;51.390;12.256;2023-03-23T04:48:02;2.40;;;2.30;;
5977;SDS011;3015;51.390;12.256;2023-03-23T04:50:30;2.53;;;2.40;;
5977;SDS011;3015;51.390;12.256;2023-03-23T04:52:58;2.33;;;2.23;;
5977;SDS011;3015;51.390;12.256;2023-03-23T04:55:28;3.10;;;2.90;;
5977;SDS011;3015;51.390;12.256;2023-03-23T04:58:04;2.70;;;2.30;;
5977;SDS011;3015;51.390;12.256;2023-03-23T05:00:31;2.73;;;2.53;;
5977;SDS011;3015;51.390;12.256;2023-03-23T05:03:00;2.53;;;2.43;;
5977;SDS011;3015;51.390;12.256;2023-03-23T05:05:26;3.97;;;2.40;;
5977;SDS011;3015;51.390;12.256;2023-03-23T05:07:52;2.70;;;2.50;;
5977;SDS011;3015;51.390;12.256;2023-03-23T05:10:18;2.80;;;2.60;;
5977;SDS011;3015;51.390;12.256;2023-03-23T05:12:44;2.70;;;2.50;;
5977;SDS011;3015;51.390;12.256;2023-03-23T05:15:11;2.77;;;2.37;;
5977;SDS011;3015;51.390;12.256;2023-03-23T05:17:38;3.20;;;2.90;;
5977;SDS011;3015;51.390;12.256;2023-03-23T05:20:06;3.60;;;2.80;;
5977;SDS011;3015;51.390;12.256;2023-03-23T05:22:36;3.07;;;2.87;;
5977;SDS011;3015;51.390;12.256;2023-03-23T05:25:03;2.50;;;2.33;;
5977;SDS011;3015;51.390;12.256;2023-03-23T05:27:31;7.57;;;3.13;;
5977;SDS011;3015;51.390;12.256;2023-03-23T05:29:57;3.10;;;2.90;;
5977;SDS011;3015;51.390;12.256;2023-03-23T05:32:27;3.03;;;2.73;;
5977;SDS011;3015;51.390;12.256;2023-03-23T05:34:56;3.40;;;3.13;;
5977;SDS011;3015;51.390;12.256;2023-03-23T05:37:26;4.53;;;3.20;;
5977;SDS011;3015;51.390;12.256;2023-03-23T05:39:57;2.60;;;2.40;;
5977;SDS011;3015;51.390;12.256;2023-03-23T05:42:30;4.10;;;3.80;;
5977;SDS011;3015;51.390;12.256;2023-03-23T05:44:57;4.87;;;4.57;;
5977;SDS011;3015;51.390;12.256;2023-03-23T05:47:23;3.77;;;3.47;;
5977;SDS011;3015;51.390;12.256;2023-03-23T05:49:50;3.37;;;3.17;;
5977;SDS011;3015;51.390;12.256;2023-03-23T05:52:16;2.83;;;2.63;;
5977;SDS011;3015;51.390;12.256;2023-03-23T05:54:42;3.00;;;2.80;;
5977;SDS011;3015;51.390;12.256;2023-03-23T05:57:09;2.80;;;2.60;;
5977;SDS011;3015;51.390;12.256;2023-03-23T05:59:35;2.93;;;2.73;;
5977;SDS011;3015;51.390;12.256;2023-03-23T06:02:01;7.03;;;3.07;;
5977;SDS011;3015;51.390;12.256;2023-03-23T06:04:28;3.47;;;3.27;;
5977;SDS011;3015;51.390;12.256;2023-03-23T06:06:53;3.10;;;2.90;;
5977;SDS011;3015;51.390;12.256;2023-03-23T06:09:19;3.30;;;3.10;;
5977;SDS011;3015;51.390;12.256;2023-03-23T06:11:45;3.00;;;2.80;;
5977;SDS011;3015;51.390;12.256;2023-03-23T06:14:12;3.50;;;3.30;;
5977;SDS011;3015;51.390;12.256;2023-03-23T06:16:38;3.53;;;3.33;;
5977;SDS011;3015;51.390;12.256;2023-03-23T06:19:03;3.33;;;2.87;;
5977;SDS011;3015;51.390;12.256;2023-03-23T06:21:30;4.63;;;4.20;;
5977;SDS011;3015;51.390;12.256;2023-03-23T06:23:56;3.73;;;3.53;;
5977;SDS011;3015;51.390;12.256;2023-03-23T06:26:28;3.57;;;3.37;;
5977;SDS011;3015;51.390;12.256;2023-03-23T06:28:58;3.27;;;3.07;;
5977;SDS011;3015;51.390;12.256;2023-03-23T06:31:24;3.90;;;3.60;;
5977;SDS011;3015;51.390;12.256;2023-03-23T06:33:51;4.07;;;3.77;;
5977;SDS011;3015;51.390;12.256;2023-03-23T06:36:17;3.30;;;3.10;;
5977;SDS011;3015;51.390;12.256;2023-03-23T06:38:44;6.47;;;4.03;;
5977;SDS011;3015;51.390;12.256;2023-03-23T06:41:10;3.60;;;3.40;;
5977;SDS011;3015;51.390;12.256;2023-03-23T06:43:36;4.63;;;4.00;;
5977;SDS011;3015;51.390;12.256;2023-03-23T06:46:04;4.27;;;3.97;;
5977;SDS011;3015;51.390;12.256;2023-03-23T06:48:30;4.00;;;3.70;;
5977;SDS011;3015;51.390;12.256;2023-03-23T06:50:56;4.30;;;4.00;;
5977;SDS011;3015;51.390;12.256;2023-03-23T06:53:22;4.57;;;3.40;;
5977;SDS011;3015;51.390;12.256;2023-03-23T06:55:48;4.30;;;3.90;;
5977;SDS011;3015;51.390;12.256;2023-03-23T06:58:14;3.60;;;3.30;;
5977;SDS011;3015;51.390;12.256;2023-03-23T07:00:39;4.50;;;3.00;;
5977;SDS011;3015;51.390;12.256;2023-03-23T07:03:06;3.50;;;3.20;;
5977;SDS011;3015;51.390;12.256;2023-03-23T07:05:32;4.20;;;3.80;;
5977;SDS011;3015;51.390;12.256;2023-03-23T07:07:59;5.60;;;5.10;;
5977;SDS011;3015;51.390;12.256;2023-03-23T07:10:26;8.80;;;5.30;;
5977;SDS011;3015;51.390;12.256;2023-03-23T07:12:52;16.13;;;5.17;;
5977;SDS011;3015;51.390;12.256;2023-03-23T07:15:18;5.03;;;3.53;;
5977;SDS011;3015;51.390;12.256;2023-03-23T07:17:43;5.47;;;4.20;;
5977;SDS011;3015;51.390;12.256;2023-03-23T07:20:10;6.67;;;4.17;;
5977;SDS011;3015;51.390;12.256;2023-03-23T07:22:36;4.57;;;4.10;;
5977;SDS011;3015;51.390;12.256;2023-03-23T07:25:03;3.63;;;3.27;;
5977;SDS011;3015;51.390;12.256;2023-03-23T07:27:29;5.90;;;4.00;;
5977;SDS011;3015;51.390;12.256;2023-03-23T07:29:55;4.23;;;3.43;;
5977;SDS011;3015;51.390;12.256;2023-03-23T07:32:22;3.70;;;3.30;;
5977;SDS011;3015;51.390;12.256;2023-03-23T07:34:49;4.30;;;3.37;;
5977;SDS011;3015;51.390;12.256;2023-03-23T07:37:15;3.57;;;3.27;;
5977;SDS011;3015;51.390;12.256;2023-03-23T07:39:42;2.80;;;2.60;;
5977;SDS011;3015;51.390;12.256;2023-03-23T07:42:07;2.50;;;2.30;;
5977;SDS011;3015;51.390;12.256;2023-03-23T07:44:33;3.40;;;2.90;;
5977;SDS011;3015;51.390;12.256;2023-03-23T07:46:59;2.73;;;2.53;;
5977;SDS011;3015;51.390;12.256;2023-03-23T07:49:25;3.30;;;3.00;;
5977;SDS011;3015;51.390;12.256;2023-03-23T07:51:51;2.93;;;2.67;;
5977;SDS011;3015;51.390;12.256;2023-03-23T07:54:17;4.37;;;3.13;;
5977;SDS011;3015;51.390;12.256;2023-03-23T07:56:43;3.10;;;2.90;;
5977;SDS011;3015;51.390;12.256;2023-03-23T07:59:10;2.90;;;2.70;;
5977;SDS011;3015;51.390;12.256;2023-03-23T08:01:36;2.67;;;2.57;;
5977;SDS011;3015;51.390;12.256;2023-03-23T08:04:02;2.97;;;2.77;;
5977;SDS011;3015;51.390;12.256;2023-03-23T08:06:27;3.80;;;3.17;;
5977;SDS011;3015;51.390;12.256;2023-03-23T08:08:53;2.50;;;2.40;;
5977;SDS011;3015;51.390;12.256;2023-03-23T08:11:20;2.42;;;2.22;;
5977;SDS011;3015;51.390;12.256;2023-03-23T08:13:46;3.00;;;2.80;;
5977;SDS011;3015;51.390;12.256;2023-03-23T08:16:12;1.90;;;1.80;;
5977;SDS011;3015;51.390;12.256;2023-03-23T08:18:38;2.20;;;2.10;;
5977;SDS011;3015;51.390;12.256;2023-03-23T08:21:05;2.57;;;2.37;;
5977;SDS011;3015;51.390;12.256;2023-03-23T08:23:34;2.40;;;2.20;;
5977;SDS011;3015;51.390;12.256;2023-03-23T08:26:01;3.30;;;2.70;;
5977;SDS011;3015;51.390;12.256;2023-03-23T08:28:28;2.30;;;2.20;;
5977;SDS011;3015;51.390;12.256;2023-03-23T08:30:53;2.90;;;2.70;;
5977;SDS011;3015;51.390;12.256;2023-03-23T08:33:19;4.70;;;2.60;;
5977;SDS011;3015;51.390;12.256;2023-03-23T08:35:53;2.77;;;2.57;;
5977;SDS011;3015;51.390;12.256;2023-03-23T08:38:23;2.40;;;2.30;;
5977;SDS011;3015;51.390;12.256;2023-03-23T08:40:49;2.50;;;2.30;;
5977;SDS011;3015;51.390;12.256;2023-03-23T08:43:15;2.70;;;2.50;;
5977;SDS011;3015;51.390;12.256;2023-03-23T08:45:41;2.83;;;2.70;;
5977;SDS011;3015;51.390;12.256;2023-03-23T08:48:07;2.70;;;2.50;;
5977;SDS011;3015;51.390;12.256;2023-03-23T08:50:33;2.73;;;2.53;;
5977;SDS011;3015;51.390;12.256;2023-03-23T08:53:00;2.90;;;2.70;;
5977;SDS011;3015;51.390;12.256;2023-03-23T08:55:26;3.10;;;2.90;;
5977;SDS011;3015;51.390;12.256;2023-03-23T08:57:52;3.60;;;2.83;;
5977;SDS011;3015;51.390;12.256;2023-03-23T09:00:18;3.73;;;2.83;;
5977;SDS011;3015;51.390;12.256;2023-03-23T09:02:47;3.47;;;3.17;;
5977;SDS011;3015;51.390;12.256;2023-03-23T09:05:15;2.87;;;2.67;;
5977;SDS011;3015;51.390;12.256;2023-03-23T09:07:43;2.47;;;2.30;;
5977;SDS011;3015;51.390;12.256;2023-03-23T09:10:11;2.60;;;2.40;;
5977;SDS011;3015;51.390;12.256;2023-03-23T09:12:38;2.73;;;2.63;;
5977;SDS011;3015;51.390;12.256;2023-03-23T09:15:05;2.90;;;2.70;;
5977;SDS011;3015;51.390;12.256;2023-03-23T09:17:33;4.27;;;2.27;;
5977;SDS011;3015;51.390;12.256;2023-03-23T09:20:00;2.33;;;2.20;;
5977;SDS011;3015;51.390;12.256;2023-03-23T09:22:25;2.80;;;2.60;;
5977;SDS011;3015;51.390;12.256;2023-03-23T09:24:52;2.80;;;2.60;;
5977;SDS011;3015;51.390;12.256;2023-03-23T09:27:18;5.23;;;3.43;;
5977;SDS011;3015;51.390;12.256;2023-03-23T09:29:44;2.43;;;2.33;;
5977;SDS011;3015;51.390;12.256;2023-03-23T09:32:10;2.90;;;2.73;;
5977;SDS011;3015;51.390;12.256;2023-03-23T09:34:38;2.73;;;2.60;;
5977;SDS011;3015;51.390;12.256;2023-03-23T09:37:04;2.83;;;2.63;;
5977;SDS011;3015;51.390;12.256;2023-03-23T09:39:30;3.33;;;3.13;;
5977;SDS011;3015;51.390;12.256;2023-03-23T09:42:09;2.20;;;2.10;;
5977;SDS011;3015;51.390;12.256;2023-03-23T09:47:35;2.60;;;2.50;;
5977;SDS011;3015;51.390;12.256;2023-03-23T09:50:14;2.93;;;2.73;;
5977;SDS011;3015;51.390;12.256;2023-03-23T09:52:45;2.90;;;2.70;;
5977;SDS011;3015;51.390;12.256;2023-03-23T09:55:16;4.03;;;2.50;;
5977;SDS011;3015;51.390;12.256;2023-03-23T09:57:57;2.73;;;2.23;;
5977;SDS011;3015;51.390;12.256;2023-03-23T10:00:32;5.87;;;5.00;;
5977;SDS011;3015;51.390;12.256;2023-03-23T10:05:51;4.90;;;2.30;;
5977;SDS011;3015;51.390;12.256;2023-03-23T10:08:22;2.70;;;2.50;;
5977;SDS011;3015;51.390;12.256;2023-03-23T10:16:03;4.03;;;2.37;;
5977;SDS011;3015;51.390;12.256;2023-03-23T10:21:06;2.77;;;2.57;;
5977;SDS011;3015;51.390;12.256;2023-03-23T10:26:34;2.50;;;2.30;;
5977;SDS011;3015;51.390;12.256;2023-03-23T10:29:24;2.67;;;2.57;;
5977;SDS011;3015;51.390;12.256;2023-03-23T10:31:59;2.50;;;2.20;;
5977;SDS011;3015;51.390;12.256;2023-03-23T10:39:57;2.30;;;2.10;;
5977;SDS011;3015;51.390;12.256;2023-03-23T10:42:30;3.00;;;2.20;;
5977;SDS011;3015;51.390;12.256;2023-03-23T10:45:11;2.23;;;2.13;;
5977;SDS011;3015;51.390;12.256;2023-03-23T10:47:53;2.13;;;2.03;;
5977;SDS011;3015;51.390;12.256;2023-03-23T10:50:36;2.33;;;2.07;;
5977;SDS011;3015;51.390;12.256;2023-03-23T10:53:07;2.10;;;1.90;;
5977;SDS011;3015;51.390;12.256;2023-03-23T10:55:41;1.97;;;1.80;;
5977;SDS011;3015;51.390;12.256;2023-03-23T10:58:09;1.70;;;1.60;;
5977;SDS011;3015;51.390;12.256;2023-03-23T11:00:41;2.17;;;2.07;;
5977;SDS011;3015;51.390;12.256;2023-03-23T11:05:54;2.13;;;1.60;;
5977;SDS011;3015;51.390;12.256;2023-03-23T11:08:26;1.90;;;1.80;;
5977;SDS011;3015;51.390;12.256;2023-03-23T11:10:56;2.20;;;2.00;;
5977;SDS011;3015;51.390;12.256;2023-03-23T11:13:32;1.97;;;1.87;;
5977;SDS011;3015;51.390;12.256;2023-03-23T11:15:59;2.43;;;2.03;;
5977;SDS011;3015;51.390;12.256;2023-03-23T11:18:36;1.97;;;1.63;;
5977;SDS011;3015;51.390;12.256;2023-03-23T11:21:03;1.77;;;1.67;;
5977;SDS011;3015;51.390;12.256;2023-03-23T11:24:13;1.60;;;1.50;;
5977;SDS011;3015;51.390;12.256;2023-03-23T11:26:28;1.60;;;1.50;;
5977;SDS011;3015;51.390;12.256;2023-03-23T11:29:03;2.53;;;2.00;;
5977;SDS011;3015;51.390;12.256;2023-03-23T11:31:38;4.10;;;1.67;;
5977;SDS011;3015;51.390;12.256;2023-03-23T11:36:38;2.60;;;1.60;;
5977;SDS011;3015;51.390;12.256;2023-03-23T11:41:47;2.80;;;1.70;;
5977;SDS011;3015;51.390;12.256;2023-03-23T11:44:13;2.07;;;1.87;;
5977;SDS011;3015;51.390;12.256;2023-03-23T11:49:27;2.00;;;1.90;;
5977;SDS011;3015;51.390;12.256;2023-03-23T11:52:20;2.13;;;2.03;;
5977;SDS011;3015;51.390;12.256;2023-03-23T11:55:11;2.13;;;2.03;;
5977;SDS011;3015;51.390;12.256;2023-03-23T11:58:00;2.17;;;2.07;;
5977;SDS011;3015;51.390;12.256;2023-03-23T12:00:30;1.90;;;1.80;;
5977;SDS011;3015;51.390;12.256;2023-03-23T12:03:00;2.30;;;2.10;;
5977;SDS011;3015;51.390;12.256;2023-03-23T12:06:29;2.17;;;2.07;;
5977;SDS011;3015;51.390;12.256;2023-03-23T12:08:48;2.13;;;2.03;;
5977;SDS011;3015;51.390;12.256;2023-03-23T12:11:28;1.97;;;1.87;;
5977;SDS011;3015;51.390;12.256;2023-03-23T12:19:39;2.27;;;2.17;;
5977;SDS011;3015;51.390;12.256;2023-03-23T12:22:35;1.90;;;1.80;;
5977;SDS011;3015;51.390;12.256;2023-03-23T12:27:52;2.07;;;1.97;;
5977;SDS011;3015;51.390;12.256;2023-03-23T12:30:40;2.00;;;1.90;;
5977;SDS011;3015;51.390;12.256;2023-03-23T12:39:29;2.13;;;2.03;;
5977;SDS011;3015;51.390;12.256;2023-03-23T12:44:37;2.00;;;1.90;;
5977;SDS011;3015;51.390;12.256;2023-03-23T12:50:24;1.80;;;1.70;;
5977;SDS011;3015;51.390;12.256;2023-03-23T12:52:57;2.17;;;2.00;;
5977;SDS011;3015;51.390;12.256;2023-03-23T13:00:56;1.87;;;1.77;;
5977;SDS011;3015;51.390;12.256;2023-03-23T13:03:40;1.67;;;1.57;;
5977;SDS011;3015;51.390;12.256;2023-03-23T13:08:54;1.73;;;1.63;;
5977;SDS011;3015;51.390;12.256;2023-03-23T13:11:41;1.67;;;1.57;;
5977;SDS011;3015;51.390;12.256;2023-03-23T13:14:15;3.73;;;1.60;;
5977;SDS011;3015;51.390;12.256;2023-03-23T13:17:05;1.90;;;1.80;;
5977;SDS011;3015;51.390;12.256;2023-03-23T13:22:33;1.93;;;1.80;;
5977;SDS011;3015;51.390;12.256;2023-03-23T13:25:13;1.67;;;1.57;;
5977;SDS011;3015;51.390;12.256;2023-03-23T13:27:43;2.90;;;2.57;;
5977;SDS011;3015;51.390;12.256;2023-03-23T13:30:19;3.93;;;3.00;;
5977;SDS011;3015;51.390;12.256;2023-03-23T13:32:47;2.20;;;2.00;;
5977;SDS011;3015;51.390;12.256;2023-03-23T13:35:13;2.10;;;2.00;;
5977;SDS011;3015;51.390;12.256;2023-03-23T13:37:46;2.43;;;2.33;;
5977;SDS011;3015;51.390;12.256;2023-03-23T13:40:24;2.53;;;2.10;;
5977;SDS011;3015;51.390;12.256;2023-03-23T13:42:55;2.00;;;1.90;;
5977;SDS011;3015;51.390;12.256;2023-03-23T13:50:31;1.90;;;1.80;;
5977;SDS011;3015;51.390;12.256;2023-03-23T13:53:25;1.90;;;1.80;;
5977;SDS011;3015;51.390;12.256;2023-03-23T13:56:05;3.10;;;2.00;;
5977;SDS011;3015;51.390;12.256;2023-03-23T13:58:52;2.23;;;2.13;;
5977;SDS011;3015;51.390;12.256;2023-03-23T14:01:35;3.43;;;2.10;;
5977;SDS011;3015;51.390;12.256;2023-03-23T14:04:04;1.77;;;1.73;;
5977;SDS011;3015;51.390;12.256;2023-03-23T14:06:35;2.57;;;2.37;;
5977;SDS011;3015;51.390;12.256;2023-03-23T14:09:44;2.10;;;2.00;;
5977;SDS011;3015;51.390;12.256;2023-03-23T14:12:05;2.20;;;2.10;;
5977;SDS011;3015;51.390;12.256;2023-03-23T14:15:22;1.77;;;1.67;;
5977;SDS011;3015;51.390;12.256;2023-03-23T14:17:36;1.70;;;1.60;;
5977;SDS011;3015;51.390;12.256;2023-03-23T14:20:09;1.87;;;1.77;;
5977;SDS011;3015;51.390;12.256;2023-03-23T14:22:52;2.00;;;1.90;;
5977;SDS011;3015;51.390;12.256;2023-03-23T14:25:19;1.90;;;1.80;;
5977;SDS011;3015;51.390;12.256;2023-03-23T14:27:50;1.93;;;1.83;;
5977;SDS011;3015;51.390;12.256;2023-03-23T14:30:18;1.70;;;1.60;;
5977;SDS011;3015;51.390;12.256;2023-03-23T14:32:45;1.70;;;1.70;;
5977;SDS011;3015;51.390;12.256;2023-03-23T14:35:26;2.00;;;1.90;;
5977;SDS011;3015;51.390;12.256;2023-03-23T14:37:54;1.93;;;1.83;;
5977;SDS011;3015;51.390;12.256;2023-03-23T14:40:20;1.90;;;1.80;;
5977;SDS011;3015;51.390;12.256;2023-03-23T14:42:47;2.03;;;1.60;;
5977;SDS011;3015;51.390;12.256;2023-03-23T14:45:16;2.40;;;2.30;;
5977;SDS011;3015;51.390;12.256;2023-03-23T14:47:44;2.03;;;1.93;;
5977;SDS011;3015;51.390;12.256;2023-03-23T14:50:26;1.90;;;1.80;;
5977;SDS011;3015;51.390;12.256;2023-03-23T14:52:56;3.03;;;2.03;;
5977;SDS011;3015;51.390;12.256;2023-03-23T14:55:27;2.80;;;1.87;;
5977;SDS011;3015;51.390;12.256;2023-03-23T14:57:56;2.90;;;2.70;;
5977;SDS011;3015;51.390;12.256;2023-03-23T15:00:35;2.40;;;2.30;;
5977;SDS011;3015;51.390;12.256;2023-03-23T15:03:05;1.83;;;1.73;;
5977;SDS011;3015;51.390;12.256;2023-03-23T15:05:37;1.90;;;1.80;;
5977;SDS011;3015;51.390;12.256;2023-03-23T15:08:08;2.47;;;2.27;;
5977;SDS011;3015;51.390;12.256;2023-03-23T15:10:40;2.50;;;2.00;;
5977;SDS011;3015;51.390;12.256;2023-03-23T15:13:08;2.27;;;2.17;;
5977;SDS011;3015;51.390;12.256;2023-03-23T15:15:37;2.70;;;2.50;;
5977;SDS011;3015;51.390;12.256;2023-03-23T15:18:03;4.63;;;3.60;;
5977;SDS011;3015;51.390;12.256;2023-03-23T15:20:45;2.47;;;2.37;;
5977;SDS011;3015;51.390;12.256;2023-03-23T15:23:30;2.77;;;2.57;;
5977;SDS011;3015;51.390;12.256;2023-03-23T15:25:56;2.43;;;2.30;;
5977;SDS011;3015;51.390;12.256;2023-03-23T15:28:29;2.50;;;2.30;;
5977;SDS011;3015;51.390;12.256;2023-03-23T15:30:57;3.10;;;2.90;;
5977;SDS011;3015;51.390;12.256;2023-03-23T15:33:26;2.80;;;2.60;;
5977;SDS011;3015;51.390;12.256;2023-03-23T15:35:58;5.87;;;5.07;;
5977;SDS011;3015;51.390;12.256;2023-03-23T15:38:25;5.13;;;4.13;;
5977;SDS011;3015;51.390;12.256;2023-03-23T15:40:55;3.13;;;2.63;;
5977;SDS011;3015;51.390;12.256;2023-03-23T15:43:25;2.43;;;2.33;;
5977;SDS011;3015;51.390;12.256;2023-03-23T15:51:15;2.60;;;2.40;;
5977;SDS011;3015;51.390;12.256;2023-03-23T15:53:42;2.40;;;2.30;;
5977;SDS011;3015;51.390;12.256;2023-03-23T15:56:09;2.40;;;2.30;;
5977;SDS011;3015;51.390;12.256;2023-03-23T15:58:36;3.57;;;1.93;;
5977;SDS011;3015;51.390;12.256;2023-03-23T16:01:25;4.83;;;2.57;;
5977;SDS011;3015;51.390;12.256;2023-03-23T16:04:03;2.23;;;2.13;;
5977;SDS011;3015;51.390;12.256;2023-03-23T16:06:32;2.20;;;2.00;;
5977;SDS011;3015;51.390;12.256;2023-03-23T16:08:59;2.47;;;2.00;;
5977;SDS011;3015;51.390;12.256;2023-03-23T16:11:27;2.93;;;2.33;;
5977;SDS011;3015;51.390;12.256;2023-03-23T16:13:53;2.20;;;2.10;;
5977;SDS011;3015;51.390;12.256;2023-03-23T16:16:21;2.07;;;1.97;;
5977;SDS011;3015;51.390;12.256;2023-03-23T16:18:52;2.77;;;2.33;;
5977;SDS011;3015;51.390;12.256;2023-03-23T16:21:17;2.17;;;1.97;;
5977;SDS011;3015;51.390;12.256;2023-03-23T16:23:43;2.17;;;2.00;;
5977;SDS011;3015;51.390;12.256;2023-03-23T16:26:10;1.80;;;1.70;;
5977;SDS011;3015;51.390;12.256;2023-03-23T16:28:36;2.07;;;1.80;;
5977;SDS011;3015;51.390;12.256;2023-03-23T16:31:02;2.07;;;1.97;;
5977;SDS011;3015;51.390;12.256;2023-03-23T16:33:28;2.10;;;2.00;;
5977;SDS011;3015;51.390;12.256;2023-03-23T16:35:54;2.13;;;1.80;;
5977;SDS011;3015;51.390;12.256;2023-03-23T16:38:21;1.93;;;1.67;;
5977;SDS011;3015;51.390;12.256;2023-03-23T16:40:47;2.47;;;2.33;;
5977;SDS011;3015;51.390;12.256;2023-03-23T16:43:12;1.73;;;1.63;;
5977;SDS011;3015;51.390;12.256;2023-03-23T16:45:39;1.87;;;1.77;;
5977;SDS011;3015;51.390;12.256;2023-03-23T16:48:06;2.30;;;2.10;;
5977;SDS011;3015;51.390;12.256;2023-03-23T16:50:33;1.80;;;1.60;;
5977;SDS011;3015;51.390;12.256;2023-03-23T16:52:59;1.93;;;1.83;;